Comstock, Texas
Current Conditions -  °F | °C
As of 5:53 AM on Sunday 25 Jan 2015 (Local Time) from KDRT Reporting Station
Clear Clear  
Wind Chill: 36°   Ceiling: Unl
Heat Index: 40°   Visibility: 10mi
Dew Point: 36°   Wind: 6mph
Humidity: 86%   Direction: 290°WNW
Pressure: 30.1"   Gusts: NA
Location:  29.68°N, 101.17°W
Report Text: KDRT 251153Z AUTO 29005KT 10SM CLR 04/02 A3010 RMK AO2 SLP186 T00440022 10078 20039 55000 $
Loading
Personal Weather Stations






























Interactive Weather Map New forecast layout! Learn more

10-Day Weather Forecast

Advertisements
Track Severe Weather on mobile